Time;durP1;ratioP1;P1;durP2;ratioP2;P2;SDS_P1;SDS_P2;PMS_P1;PMS_P2;Temp;Humidity;BMP_temperature;BMP_pressure;BME280_temperature;BME280_humidity;BME280_pressure;Samples;Min_cycle;Max_cycle;Signal;HPM_P1;HPM_P2
2023/09/14 00:01:59;;;;;;;;;;;;;;;;;;5009984;28;5080;-66
2023/09/14 00:04:24;;;;;;;;;;;;;;;;;;5010602;28;1331;-66
2023/09/14 00:06:50;;;;;;;;;;;;;;;;;;5008076;28;4670;-66
2023/09/14 00:09:15;;;;;;;;;;;;;;;;;;5001131;28;4893;-65
2023/09/14 00:11:40;;;;;;;;;;;;;;;;;;5007461;28;4996;-66
2023/09/14 00:14:06;;;;;;;;;;;;;;;;;;5009862;28;5012;-66
2023/09/14 00:16:31;;;;;;;;;;;;;;;;;;4992952;28;1836;-65
2023/09/14 00:18:56;;;;;;;;;;;;;;;;;;5008945;28;5095;-67
2023/09/14 00:21:21;;;;;;;;;;;;;;;;;;5011658;28;4933;-67
2023/09/14 00:23:47;;;;;;;;;;;;;;;;;;5000547;28;5329;-67
2023/09/14 00:26:12;;;;;;;;;;;;;;;;;;5010196;28;5025;-66
2023/09/14 00:28:37;;;;;;;;;;;;;;;;;;5005973;28;1447;-65
2023/09/14 00:31:03;;;;;;;;;;;;;;;;;;5009709;28;4429;-66
2023/09/14 00:33:28;;;;;;;;;;;;;;;;;;5001000;28;4685;-66
2023/09/14 00:35:53;;;;;;;;;;;;;;;;;;4991659;28;5113;-66
2023/09/14 00:38:18;;;;;;;;;;;;;;;;;;5004904;28;4468;-66
2023/09/14 00:40:44;;;;;;;;;;;;;;;;;;5009751;28;1910;-66
2023/09/14 00:43:09;;;;;;;;;;;;;;;;;;5004847;28;5009;-66
2023/09/14 00:45:34;;;;;;;;;;;;;;;;;;5008659;28;5091;-66
2023/09/14 00:48:02;;;;;;;;;;;;;;;;;;4990023;28;5042;-68
2023/09/14 00:50:27;;;;;;;;;;;;;;;;;;5002747;28;5144;-69
2023/09/14 00:52:57;;;;;;;;;;;;;;;;;;5029273;28;5058;-67
2023/09/14 00:55:23;;;;;;;;;;;;;;;;;;5009007;28;1319;-66
2023/09/14 00:57:48;;;;;;;;;;;;;;;;;;5006198;28;5012;-66
2023/09/14 01:00:14;;;;;;;;;;;;;;;;;;5008342;28;5067;-66
2023/09/14 01:02:39;;;;;;;;;;;;;;;;;;5004538;28;4545;-67
2023/09/14 01:05:05;;;;;;;;;;;;;;;;;;4987966;28;4701;-67
2023/09/14 01:07:30;;;;;;;;;;;;;;;;;;5023551;28;3270;-70
2023/09/14 01:09:55;;;;;;;;;;;;;;;;;;5008085;28;5088;-67
2023/09/14 01:12:21;;;;;;;;;;;;;;;;;;5005092;28;4508;-65
2023/09/14 01:14:46;;;;;;;;;;;;;;;;;;5004815;28;4507;-66
2023/09/14 01:17:13;;;;;;;;;;;;;;;;;;5021113;28;5030;-65
2023/09/14 01:19:41;;;;;;;;;;;;;;;;;;5020325;28;1347;-66
2023/09/14 01:22:09;;;;;;;;;;;;;;;;;;5014440;28;4438;-66
2023/09/14 01:24:40;;;;;;;;;;;;;;;;;;5000568;28;4443;-66
2023/09/14 01:27:06;;;;;;;;;;;;;;;;;;5004722;28;5019;-67
2023/09/14 01:29:31;;;;;;;;;;;;;;;;;;5007992;28;4497;-66
2023/09/14 01:31:57;;;;;;;;;;;;;;;;;;5002028;28;4896;-65
2023/09/14 01:34:22;;;;;;;;;;;;;;;;;;5012576;28;4866;-66
2023/09/14 01:36:54;;;;;;;;;;;;;;;;;;5001865;28;4927;-66
2023/09/14 01:39:20;;;;;;;;;;;;;;;;;;5012924;28;5115;-67
2023/09/14 01:41:46;;;;;;;;;;;;;;;;;;5007822;28;4499;-67
2023/09/14 01:44:11;;;;;;;;;;;;;;;;;;5006399;28;4685;-68
2023/09/14 01:46:36;;;;;;;;;;;;;;;;;;5020946;28;1534;-66
2023/09/14 01:49:01;;;;;;;;;;;;;;;;;;5000330;28;4442;-66
2023/09/14 01:51:28;;;;;;;;;;;;;;;;;;5006024;28;4625;-66
2023/09/14 01:53:53;;;;;;;;;;;;;;;;;;5007186;28;4520;-66
2023/09/14 01:56:18;;;;;;;;;;;;;;;;;;5003352;28;4699;-66
2023/09/14 01:58:44;;;;;;;;;;;;;;;;;;5003110;28;3396;-67
2023/09/14 02:01:09;;;;;;;;;;;;;;;;;;4986060;28;5061;-68
2023/09/14 02:03:35;;;;;;;;;;;;;;;;;;5006179;28;5158;-66
2023/09/14 02:06:02;;;;;;;;;;;;;;;;;;5004683;28;5477;-66
2023/09/14 02:08:27;;;;;;;;;;;;;;;;;;5021008;28;5096;-66
2023/09/14 02:10:53;;;;;;;;;;;;;;;;;;5004732;28;5085;-65
2023/09/14 02:13:18;;;;;;;;;;;;;;;;;;5004137;28;3339;-67
2023/09/14 02:15:43;;;;;;;;;;;;;;;;;;5015330;28;5071;-67
2023/09/14 02:18:08;;;;;;;;;;;;;;;;;;5010454;28;4879;-67
2023/09/14 02:20:35;;;;;;;;;;;;;;;;;;4988201;28;5060;-66
2023/09/14 02:23:01;;;;;;;;;;;;;;;;;;5003256;28;5150;-66
2023/09/14 02:25:26;;;;;;;;;;;;;;;;;;5007925;28;3310;-66
2023/09/14 02:27:51;;;;;;;;;;;;;;;;;;4999687;28;5014;-66
2023/09/14 02:30:16;;;;;;;;;;;;;;;;;;5003069;28;4903;-65
2023/09/14 02:32:42;;;;;;;;;;;;;;;;;;4989034;28;4522;-66
2023/09/14 02:35:07;;;;;;;;;;;;;;;;;;5005355;28;5905;-66
2023/09/14 02:37:32;;;;;;;;;;;;;;;;;;5004990;28;3541;-67
2023/09/14 02:39:58;;;;;;;;;;;;;;;;;;4998281;28;4669;-70
2023/09/14 02:42:23;;;;;;;;;;;;;;;;;;5004294;28;4823;-65
2023/09/14 02:44:48;;;;;;;;;;;;;;;;;;5006419;28;4634;-65
2023/09/14 02:47:13;;;;;;;;;;;;;;;;;;5006502;28;5090;-67
2023/09/14 02:49:39;;;;;;;;;;;;;;;;;;5005797;28;1141;-67
2023/09/14 02:52:04;;;;;;;;;;;;;;;;;;5000563;28;5120;-68
2023/09/14 02:54:30;;;;;;;;;;;;;;;;;;5006815;28;5069;-66
2023/09/14 02:56:55;;;;;;;;;;;;;;;;;;4998713;28;4662;-66
2023/09/14 02:59:21;;;;;;;;;;;;;;;;;;5006443;28;4995;-66
2023/09/14 03:01:46;;;;;;;;;;;;;;;;;;5005547;28;2001;-66
2023/09/14 03:04:12;;;;;;;;;;;;;;;;;;5007539;28;4399;-66
2023/09/14 03:06:38;;;;;;;;;;;;;;;;;;5001095;28;4493;-66
2023/09/14 03:09:04;;;;;;;;;;;;;;;;;;5007012;28;4519;-66
2023/09/14 03:11:29;;;;;;;;;;;;;;;;;;4986158;28;5025;-67
2023/09/14 03:13:54;;;;;;;;;;;;;;;;;;5001789;28;5140;-67
2023/09/14 03:16:20;;;;;;;;;;;;;;;;;;5002128;28;1117;-65
2023/09/14 03:18:45;;;;;;;;;;;;;;;;;;5001997;28;5136;-68
2023/09/14 03:21:20;;;;;;;;;;;;;;;;;;4998086;28;5016;-66
2023/09/14 03:23:45;;;;;;;;;;;;;;;;;;4997830;28;5115;-65
2023/09/14 03:26:13;;;;;;;;;;;;;;;;;;4998120;28;5087;-65
2023/09/14 03:28:38;;;;;;;;;;;;;;;;;;5000816;28;3272;-66
2023/09/14 03:31:03;;;;;;;;;;;;;;;;;;4999381;28;5034;-66
2023/09/14 03:33:29;;;;;;;;;;;;;;;;;;4998398;28;4490;-66
2023/09/14 03:35:54;;;;;;;;;;;;;;;;;;5000795;28;5182;-66
2023/09/14 03:38:20;;;;;;;;;;;;;;;;;;5004405;28;4434;-66
2023/09/14 03:40:45;;;;;;;;;;;;;;;;;;5001745;28;3292;-65
2023/09/14 03:43:10;;;;;;;;;;;;;;;;;;4999856;28;4926;-66
2023/09/14 03:45:37;;;;;;;;;;;;;;;;;;5006251;28;4859;-66
2023/09/14 03:48:03;;;;;;;;;;;;;;;;;;5005647;28;4742;-67
2023/09/14 03:50:28;;;;;;;;;;;;;;;;;;5020719;28;5192;-68
2023/09/14 03:52:53;;;;;;;;;;;;;;;;;;5006879;28;5187;-66
2023/09/14 03:55:19;;;;;;;;;;;;;;;;;;5001645;28;1254;-68
2023/09/14 03:57:47;;;;;;;;;;;;;;;;;;4989599;28;5069;-67
2023/09/14 04:00:14;;;;;;;;;;;;;;;;;;5009379;28;4984;-66
2023/09/14 04:02:39;;;;;;;;;;;;;;;;;;5004771;28;4521;-69
2023/09/14 04:05:11;;;;;;;;;;;;;;;;;;5003184;28;5025;-66
2023/09/14 04:07:37;;;;;;;;;;;;;;;;;;5005528;28;3328;-65
2023/09/14 04:10:04;;;;;;;;;;;;;;;;;;5009107;28;5044;-65
2023/09/14 04:12:30;;;;;;;;;;;;;;;;;;5007479;28;5046;-67
2023/09/14 04:14:55;;;;;;;;;;;;;;;;;;5007894;28;4496;-66
2023/09/14 04:17:20;;;;;;;;;;;;;;;;;;5001573;28;5106;-66
2023/09/14 04:19:46;;;;;;;;;;;;;;;;;;5008130;28;3331;-65
2023/09/14 04:22:12;;;;;;;;;;;;;;;;;;5005994;28;4582;-65
2023/09/14 04:24:37;;;;;;;;;;;;;;;;;;5017257;28;5809;-70
2023/09/14 04:27:02;;;;;;;;;;;;;;;;;;5003100;28;5042;-66
2023/09/14 04:29:29;;;;;;;;;;;;;;;;;;5004448;28;4992;-66
2023/09/14 04:31:57;;;;;;;;;;;;;;;;;;5001217;28;5083;-68
2023/09/14 04:34:23;;;;;;;;;;;;;;;;;;5004490;28;4792;-66
2023/09/14 04:36:48;;;;;;;;;;;;;;;;;;4989324;28;4446;-67
2023/09/14 04:39:14;;;;;;;;;;;;;;;;;;5008091;28;4646;-66
2023/09/14 04:41:39;;;;;;;;;;;;;;;;;;5008369;28;5057;-67
2023/09/14 04:44:05;;;;;;;;;;;;;;;;;;5006001;28;5067;-66
2023/09/14 04:46:30;;;;;;;;;;;;;;;;;;5001499;28;1370;-66
2023/09/14 04:48:55;;;;;;;;;;;;;;;;;;5008844;28;4504;-66
2023/09/14 04:51:23;;;;;;;;;;;;;;;;;;5005704;28;4863;-66
2023/09/14 04:53:48;;;;;;;;;;;;;;;;;;5006341;28;5028;-65
2023/09/14 04:56:13;;;;;;;;;;;;;;;;;;5007769;28;5117;-65
2023/09/14 04:58:39;;;;;;;;;;;;;;;;;;5004095;28;1423;-67
2023/09/14 05:01:05;;;;;;;;;;;;;;;;;;5006349;28;4395;-65
2023/09/14 05:03:30;;;;;;;;;;;;;;;;;;5007123;28;5285;-66
2023/09/14 05:05:55;;;;;;;;;;;;;;;;;;5002884;28;5063;-67
2023/09/14 05:08:21;;;;;;;;;;;;;;;;;;5006858;28;4583;-69
2023/09/14 05:10:50;;;;;;;;;;;;;;;;;;5013698;28;3336;-65
2023/09/14 05:13:15;;;;;;;;;;;;;;;;;;4997726;28;5108;-67
2023/09/14 05:15:41;;;;;;;;;;;;;;;;;;4999467;28;5139;-66
2023/09/14 05:18:06;;;;;;;;;;;;;;;;;;5004692;28;4664;-65
2023/09/14 05:20:31;;;;;;;;;;;;;;;;;;5006220;28;5011;-66
2023/09/14 05:22:56;;;;;;;;;;;;;;;;;;5021200;28;4504;-66
2023/09/14 05:25:25;;;;;;;;;;;;;;;;;;5000484;28;3351;-65
2023/09/14 05:27:50;;;;;;;;;;;;;;;;;;5002639;28;5055;-69
2023/09/14 05:30:21;;;;;;;;;;;;;;;;;;5006763;28;5131;-70
2023/09/14 05:32:46;;;;;;;;;;;;;;;;;;5003641;28;4617;-67
2023/09/14 05:35:11;;;;;;;;;;;;;;;;;;5004509;28;5074;-68
2023/09/14 05:37:37;;;;;;;;;;;;;;;;;;4981741;28;3351;-68
2023/09/14 05:40:11;;;;;;;;;;;;;;;;;;4998050;28;5047;-68
2023/09/14 05:42:39;;;;;;;;;;;;;;;;;;4987478;28;4760;-68
2023/09/14 05:45:09;;;;;;;;;;;;;;;;;;4997700;28;5204;-68
2023/09/14 05:47:34;;;;;;;;;;;;;;;;;;4998882;28;5119;-68
2023/09/14 05:49:59;;;;;;;;;;;;;;;;;;5019614;28;5086;-68
2023/09/14 05:52:25;;;;;;;;;;;;;;;;;;4992571;28;2309;-68
2023/09/14 05:54:50;;;;;;;;;;;;;;;;;;5007323;28;4967;-68
2023/09/14 05:57:16;;;;;;;;;;;;;;;;;;5005971;28;4998;-68
2023/09/14 05:59:41;;;;;;;;;;;;;;;;;;4989725;28;5094;-68
2023/09/14 06:02:06;;;;;;;;;;;;;;;;;;5002105;28;5287;-68
2023/09/14 06:04:31;;;;;;;;;;;;;;;;;;5008410;28;1121;-68
2023/09/14 06:06:57;;;;;;;;;;;;;;;;;;5007679;28;4971;-67
2023/09/14 06:09:22;;;;;;;;;;;;;;;;;;5007590;28;5036;-67
2023/09/14 06:11:47;;;;;;;;;;;;;;;;;;5000053;28;5119;-67
2023/09/14 06:14:12;;;;;;;;;;;;;;;;;;4982070;28;4699;-69
2023/09/14 06:16:38;;;;;;;;;;;;;;;;;;5005182;28;3280;-69
2023/09/14 06:19:03;;;;;;;;;;;;;;;;;;5002756;28;5056;-69
2023/09/14 06:21:29;;;;;;;;;;;;;;;;;;5007624;28;5143;-69
2023/09/14 06:23:54;;;;;;;;;;;;;;;;;;5007038;28;5191;-68
2023/09/14 06:26:19;;;;;;;;;;;;;;;;;;4997591;28;4495;-67
2023/09/14 06:28:44;;;;;;;;;;;;;;;;;;5000702;28;2292;-69
2023/09/14 06:31:10;;;;;;;;;;;;;;;;;;5007639;28;4932;-69
2023/09/14 06:33:35;;;;;;;;;;;;;;;;;;5002589;28;5058;-69
2023/09/14 06:36:00;;;;;;;;;;;;;;;;;;5005159;28;5116;-69
2023/09/14 06:38:25;;;;;;;;;;;;;;;;;;5001013;28;5076;-67
2023/09/14 06:40:51;;;;;;;;;;;;;;;;;;5001240;28;5022;-69
2023/09/14 06:43:16;;;;;;;;;;;;;;;;;;5003594;28;3268;-67
2023/09/14 06:45:41;;;;;;;;;;;;;;;;;;5001777;28;5146;-69
2023/09/14 06:48:07;;;;;;;;;;;;;;;;;;5004306;28;5011;-68
2023/09/14 06:50:32;;;;;;;;;;;;;;;;;;5001067;28;5007;-69
2023/09/14 06:52:57;;;;;;;;;;;;;;;;;;5010903;28;4880;-68
2023/09/14 06:55:22;;;;;;;;;;;;;;;;;;5003404;28;3349;-69
2023/09/14 06:57:48;;;;;;;;;;;;;;;;;;5004333;28;4639;-68
2023/09/14 07:00:20;;;;;;;;;;;;;;;;;;5004410;28;4619;-69
2023/09/14 07:02:46;;;;;;;;;;;;;;;;;;5000929;28;4977;-80
2023/09/14 07:05:11;;;;;;;;;;;;;;;;;;4996261;28;5093;-79
2023/09/14 07:07:39;;;;;;;;;;;;;;;;;;5005175;28;1326;-73
2023/09/14 07:10:05;;;;;;;;;;;;;;;;;;4995341;28;5013;-69
2023/09/14 07:12:31;;;;;;;;;;;;;;;;;;4998534;28;4983;-68
2023/09/14 07:14:56;;;;;;;;;;;;;;;;;;4982664;28;5230;-71
2023/09/14 07:17:21;;;;;;;;;;;;;;;;;;4988544;28;4467;-71
2023/09/14 07:19:46;;;;;;;;;;;;;;;;;;5002496;28;2186;-68
2023/09/14 07:22:12;;;;;;;;;;;;;;;;;;5004345;28;5002;-70
2023/09/14 07:24:37;;;;;;;;;;;;;;;;;;5007012;28;4986;-72
2023/09/14 07:27:02;;;;;;;;;;;;;;;;;;5005018;28;5051;-74
2023/09/14 07:29:29;;;;;;;;;;;;;;;;;;4990739;28;5145;-69
2023/09/14 07:31:55;;;;;;;;;;;;;;;;;;5009151;28;4764;-70
2023/09/14 07:34:20;;;;;;;;;;;;;;;;;;4986183;28;4841;-71
2023/09/14 07:36:45;;;;;;;;;;;;;;;;;;5006284;28;4944;-70
2023/09/14 07:39:11;;;;;;;;;;;;;;;;;;5000304;28;4570;-71
2023/09/14 07:41:36;;;;;;;;;;;;;;;;;;5006257;28;4557;-69
2023/09/14 07:44:02;;;;;;;;;;;;;;;;;;5009554;28;4530;-69
2023/09/14 07:46:27;;;;;;;;;;;;;;;;;;5004910;28;3360;-70
2023/09/14 07:48:52;;;;;;;;;;;;;;;;;;5004382;28;5020;-70
2023/09/14 07:51:18;;;;;;;;;;;;;;;;;;5008210;28;5028;-69
2023/09/14 07:53:43;;;;;;;;;;;;;;;;;;5003591;28;5199;-70
2023/09/14 07:56:08;;;;;;;;;;;;;;;;;;5023474;28;5084;-69
2023/09/14 07:58:33;;;;;;;;;;;;;;;;;;5008003;28;1229;-70
2023/09/14 08:00:59;;;;;;;;;;;;;;;;;;5006453;28;5114;-74
2023/09/14 08:03:25;;;;;;;;;;;;;;;;;;5004317;28;5107;-71
2023/09/14 08:05:51;;;;;;;;;;;;;;;;;;5003724;28;5021;-71
2023/09/14 08:08:17;;;;;;;;;;;;;;;;;;5004694;28;5090;-69
2023/09/14 08:10:47;;;;;;;;;;;;;;;;;;5004269;28;3319;-70
2023/09/14 08:13:12;;;;;;;;;;;;;;;;;;5005468;28;4817;-73
2023/09/14 08:15:39;;;;;;;;;;;;;;;;;;5003444;28;5485;-70
2023/09/14 08:18:04;;;;;;;;;;;;;;;;;;5010885;28;4525;-68
2023/09/14 08:20:30;;;;;;;;;;;;;;;;;;4984071;28;5068;-71
2023/09/14 08:22:55;;;;;;;;;;;;;;;;;;5005959;28;5020;-72
2023/09/14 08:25:20;;;;;;;;;;;;;;;;;;5007418;28;1357;-73
2023/09/14 08:27:45;;;;;;;;;;;;;;;;;;5003746;28;5009;-74
2023/09/14 08:30:11;;;;;;;;;;;;;;;;;;5005686;28;4964;-74
2023/09/14 08:32:37;;;;;;;;;;;;;;;;;;5004600;28;5117;-73
2023/09/14 08:35:22;;;;;;;;;;;;;;;;;;5023605;28;4806;-72
2023/09/14 08:37:47;;;;;;;;;;;;;;;;;;5009364;28;1421;-72
2023/09/14 08:40:13;;;;;;;;;;;;;;;;;;5003252;28;5006;-74
2023/09/14 08:42:38;;;;;;;;;;;;;;;;;;5007371;28;4554;-69
2023/09/14 08:45:10;;;;;;;;;;;;;;;;;;5005525;28;5122;-71
2023/09/14 08:47:35;;;;;;;;;;;;;;;;;;5007021;28;4455;-73
2023/09/14 08:50:00;;;;;;;;;;;;;;;;;;5005750;28;5028;-61
2023/09/14 08:52:25;;;;;;;;;;;;;;;;;;5018619;28;2205;-61
2023/09/14 08:54:51;;;;;;;;;;;;;;;;;;4990925;28;4441;-62
2023/09/14 08:57:16;;;;;;;;;;;;;;;;;;5006130;28;5170;-63
2023/09/14 08:59:41;;;;;;;;;;;;;;;;;;4998824;28;4983;-62
2023/09/14 09:02:08;;;;;;;;;;;;;;;;;;5014721;28;4951;-62
2023/09/14 09:04:33;;;;;;;;;;;;;;;;;;5003425;28;3318;-61
2023/09/14 09:06:59;;;;;;;;;;;;;;;;;;5001764;28;5044;-61
2023/09/14 09:09:24;;;;;;;;;;;;;;;;;;5008189;28;5095;-62
2023/09/14 09:11:50;;;;;;;;;;;;;;;;;;4989326;28;4590;-61
2023/09/14 09:14:15;;;;;;;;;;;;;;;;;;5010600;28;5254;-61
2023/09/14 09:16:41;;;;;;;;;;;;;;;;;;5020520;28;1424;-59
2023/09/14 09:19:06;;;;;;;;;;;;;;;;;;5003688;28;4872;-59
2023/09/14 09:21:35;;;;;;;;;;;;;;;;;;4998549;28;4637;-59
2023/09/14 09:24:01;;;;;;;;;;;;;;;;;;5008009;28;4962;-60
2023/09/14 09:26:31;;;;;;;;;;;;;;;;;;5000458;28;4984;-60
2023/09/14 09:28:57;;;;;;;;;;;;;;;;;;5007351;28;4999;-60
2023/09/14 09:31:23;;;;;;;;;;;;;;;;;;5005589;28;1318;-61
2023/09/14 09:33:48;;;;;;;;;;;;;;;;;;4986255;28;5159;-61
2023/09/14 09:36:16;;;;;;;;;;;;;;;;;;5007648;28;4503;-59
2023/09/14 09:38:42;;;;;;;;;;;;;;;;;;5003116;28;5078;-60
2023/09/14 09:41:09;;;;;;;;;;;;;;;;;;4998253;28;5103;-61
2023/09/14 09:43:34;;;;;;;;;;;;;;;;;;5006008;28;1578;-60
2023/09/14 09:45:59;;;;;;;;;;;;;;;;;;4997537;28;4454;-60
2023/09/14 09:48:27;;;;;;;;;;;;;;;;;;5005851;28;5111;-60
2023/09/14 09:50:53;;;;;;;;;;;;;;;;;;5006870;28;5008;-59
2023/09/14 09:53:19;;;;;;;;;;;;;;;;;;5006997;28;5023;-60
2023/09/14 09:55:45;;;;;;;;;;;;;;;;;;5007644;28;1161;-60
2023/09/14 09:58:10;;;;;;;;;;;;;;;;;;4989663;28;4602;-60
2023/09/14 10:00:39;;;;;;;;;;;;;;;;;;4988117;28;5275;-61
2023/09/14 10:03:05;;;;;;;;;;;;;;;;;;5004002;28;4676;-60
2023/09/14 10:05:31;;;;;;;;;;;;;;;;;;5006121;28;5062;-60
2023/09/14 10:07:57;;;;;;;;;;;;;;;;;;5004976;28;5291;-60
2023/09/14 10:10:23;;;;;;;;;;;;;;;;;;5005973;28;1390;-60
2023/09/14 10:12:48;;;;;;;;;;;;;;;;;;5002151;28;4917;-66
2023/09/14 10:15:14;;;;;;;;;;;;;;;;;;4987624;28;4451;-66
2023/09/14 10:17:39;;;;;;;;;;;;;;;;;;5001017;28;4559;-67
2023/09/14 10:20:08;;;;;;;;;;;;;;;;;;5000171;28;6926;-66
2023/09/14 10:22:34;;;;;;;;;;;;;;;;;;5003336;28;2258;-65
2023/09/14 10:25:00;;;;;;;;;;;;;;;;;;5004873;28;4962;-66
2023/09/14 10:27:27;;;;;;;;;;;;;;;;;;4980193;28;5051;-66
2023/09/14 10:29:52;;;;;;;;;;;;;;;;;;5006215;28;4605;-66
2023/09/14 10:32:18;;;;;;;;;;;;;;;;;;4987664;28;4532;-66
2023/09/14 10:34:43;;;;;;;;;;;;;;;;;;5001750;28;4799;-65
2023/09/14 10:37:09;;;;;;;;;;;;;;;;;;5003052;28;5068;-63
2023/09/14 10:39:34;;;;;;;;;;;;;;;;;;5000506;28;4446;-66
2023/09/14 10:42:00;;;;;;;;;;;;;;;;;;4982078;28;5092;-65
2023/09/14 10:44:27;;;;;;;;;;;;;;;;;;5005021;28;5016;-65
2023/09/14 10:46:55;;;;;;;;;;;;;;;;;;5021336;28;4666;-65
2023/09/14 10:49:24;;;;;;;;;;;;;;;;;;5005705;28;1135;-67
2023/09/14 10:51:49;;;;;;;;;;;;;;;;;;5005372;28;5139;-66
2023/09/14 10:54:14;;;;;;;;;;;;;;;;;;5006133;28;5089;-66
2023/09/14 10:56:40;;;;;;;;;;;;;;;;;;5002254;28;4689;-68
2023/09/14 10:59:14;;;;;;;;;;;;;;;;;;5020072;28;5157;-66
2023/09/14 11:01:46;;;;;;;;;;;;;;;;;;5008502;28;3423;-67
2023/09/14 11:04:17;;;;;;;;;;;;;;;;;;5001042;28;4613;-67
2023/09/14 11:06:43;;;;;;;;;;;;;;;;;;5002790;28;5230;-67
2023/09/14 11:09:08;;;;;;;;;;;;;;;;;;5007009;28;5105;-68
2023/09/14 11:11:40;;;;;;;;;;;;;;;;;;5015617;28;5033;-66
2023/09/14 11:14:09;;;;;;;;;;;;;;;;;;4999778;28;4588;-67
2023/09/14 11:16:47;;;;;;;;;;;;;;;;;;5002469;28;3267;-66
2023/09/14 11:19:37;;;;;;;;;;;;;;;;;;5023438;28;4653;-65
2023/09/14 11:22:03;;;;;;;;;;;;;;;;;;4997903;28;5009;-65
2023/09/14 11:24:35;;;;;;;;;;;;;;;;;;5001396;28;5155;-66
2023/09/14 11:27:00;;;;;;;;;;;;;;;;;;5004237;28;5109;-65
2023/09/14 11:29:28;;;;;;;;;;;;;;;;;;5007243;28;4936;-65
2023/09/14 11:31:54;;;;;;;;;;;;;;;;;;5000511;28;4570;-65
2023/09/14 11:34:21;;;;;;;;;;;;;;;;;;4991416;28;4820;-65
2023/09/14 11:36:47;;;;;;;;;;;;;;;;;;5020581;28;5145;-66
2023/09/14 11:39:13;;;;;;;;;;;;;;;;;;5006989;28;4679;-66
2023/09/14 11:41:55;;;;;;;;;;;;;;;;;;5007254;28;4716;-65
2023/09/14 11:44:24;;;;;;;;;;;;;;;;;;5013065;28;5136;-67
2023/09/14 11:46:49;;;;;;;;;;;;;;;;;;5006746;28;1596;-67
2023/09/14 11:49:26;;;;;;;;;;;;;;;;;;4987953;28;4991;-70
2023/09/14 11:51:51;;;;;;;;;;;;;;;;;;5003280;28;4978;-65
2023/09/14 11:54:16;;;;;;;;;;;;;;;;;;5003346;28;4461;-68
2023/09/14 11:56:41;;;;;;;;;;;;;;;;;;5004756;28;4526;-67
2023/09/14 11:59:07;;;;;;;;;;;;;;;;;;5007556;28;4736;-68
2023/09/14 12:01:34;;;;;;;;;;;;;;;;;;5004453;28;3353;-67
2023/09/14 12:03:59;;;;;;;;;;;;;;;;;;5022256;28;4990;-67
2023/09/14 12:06:26;;;;;;;;;;;;;;;;;;5022444;28;5086;-67
2023/09/14 12:08:51;;;;;;;;;;;;;;;;;;5006522;28;5102;-67
2023/09/14 12:11:18;;;;;;;;;;;;;;;;;;5008059;28;5090;-67
2023/09/14 12:13:53;;;;;;;;;;;;;;;;;;5008676;28;1244;-66
2023/09/14 12:16:23;;;;;;;;;;;;;;;;;;5007354;28;4989;-66
2023/09/14 12:18:48;;;;;;;;;;;;;;;;;;5005629;28;4707;-66
2023/09/14 12:21:14;;;;;;;;;;;;;;;;;;5004014;28;5169;-67
2023/09/14 12:23:39;;;;;;;;;;;;;;;;;;5019339;28;4488;-67
2023/09/14 12:26:05;;;;;;;;;;;;;;;;;;5004436;28;4994;-67
2023/09/14 12:28:30;;;;;;;;;;;;;;;;;;5016363;28;1415;-68
2023/09/14 12:30:55;;;;;;;;;;;;;;;;;;5005884;28;5012;-70
2023/09/14 12:33:21;;;;;;;;;;;;;;;;;;5005920;28;5106;-69
2023/09/14 12:35:47;;;;;;;;;;;;;;;;;;5002618;28;5057;-69
2023/09/14 12:38:12;;;;;;;;;;;;;;;;;;5019552;28;4464;-67
2023/09/14 12:40:38;;;;;;;;;;;;;;;;;;5019212;28;1910;-66
2023/09/14 12:43:04;;;;;;;;;;;;;;;;;;5006352;28;5031;-67
2023/09/14 12:45:29;;;;;;;;;;;;;;;;;;5004366;28;5100;-69
2023/09/14 12:47:54;;;;;;;;;;;;;;;;;;4988113;28;5191;-67
2023/09/14 12:50:20;;;;;;;;;;;;;;;;;;5005159;28;5001;-69
2023/09/14 12:52:45;;;;;;;;;;;;;;;;;;5022910;28;1236;-67
2023/09/14 12:55:17;;;;;;;;;;;;;;;;;;5006747;28;5052;-66
2023/09/14 12:57:47;;;;;;;;;;;;;;;;;;5002299;28;5165;-65
2023/09/14 13:00:14;;;;;;;;;;;;;;;;;;5003620;28;5192;-63
2023/09/14 13:02:40;;;;;;;;;;;;;;;;;;5002020;28;4596;-67
2023/09/14 13:05:06;;;;;;;;;;;;;;;;;;5001522;28;4651;-64
2023/09/14 13:07:31;;;;;;;;;;;;;;;;;;5007509;28;3382;-64
2023/09/14 13:10:07;;;;;;;;;;;;;;;;;;5022689;28;5019;-65
2023/09/14 13:12:32;;;;;;;;;;;;;;;;;;5006704;28;5049;-66
2023/09/14 13:14:58;;;;;;;;;;;;;;;;;;4992432;28;4892;-65
2023/09/14 13:17:23;;;;;;;;;;;;;;;;;;5009131;28;5141;-64
2023/09/14 13:19:48;;;;;;;;;;;;;;;;;;5004695;28;1369;-66
2023/09/14 13:22:14;;;;;;;;;;;;;;;;;;5004645;28;4950;-65
2023/09/14 13:24:40;;;;;;;;;;;;;;;;;;5001833;28;4682;-65
2023/09/14 13:27:05;;;;;;;;;;;;;;;;;;4998917;28;4990;-65
2023/09/14 13:29:30;;;;;;;;;;;;;;;;;;5002762;28;5032;-66
2023/09/14 13:31:56;;;;;;;;;;;;;;;;;;5001058;28;6017;-65
2023/09/14 13:34:21;;;;;;;;;;;;;;;;;;4992194;28;4785;-65
2023/09/14 13:36:46;;;;;;;;;;;;;;;;;;5003187;28;4987;-66
2023/09/14 13:39:12;;;;;;;;;;;;;;;;;;5005107;28;5058;-65
2023/09/14 13:41:38;;;;;;;;;;;;;;;;;;5007710;28;5119;-66
2023/09/14 13:44:03;;;;;;;;;;;;;;;;;;5003809;28;4625;-65
2023/09/14 13:46:28;;;;;;;;;;;;;;;;;;5005514;28;1583;-65
2023/09/14 13:48:56;;;;;;;;;;;;;;;;;;4987454;28;5985;-65
2023/09/14 13:51:22;;;;;;;;;;;;;;;;;;5004841;28;5088;-65
2023/09/14 13:53:47;;;;;;;;;;;;;;;;;;5001919;28;4910;-64
2023/09/14 13:56:12;;;;;;;;;;;;;;;;;;5010253;28;5095;-65
2023/09/14 13:58:37;;;;;;;;;;;;;;;;;;4998372;28;1342;-65
2023/09/14 14:01:03;;;;;;;;;;;;;;;;;;5001581;28;5062;-66
2023/09/14 14:03:29;;;;;;;;;;;;;;;;;;5001997;28;5353;-65
2023/09/14 14:05:54;;;;;;;;;;;;;;;;;;5002412;28;4962;-65
2023/09/14 14:08:19;;;;;;;;;;;;;;;;;;5002431;28;5053;-66
2023/09/14 14:10:45;;;;;;;;;;;;;;;;;;5004864;28;1158;-65
2023/09/14 14:13:10;;;;;;;;;;;;;;;;;;5004251;28;4580;-65
2023/09/14 14:15:36;;;;;;;;;;;;;;;;;;5006998;28;4481;-65
2023/09/14 14:18:01;;;;;;;;;;;;;;;;;;5006044;28;4457;-65
2023/09/14 14:20:26;;;;;;;;;;;;;;;;;;5008280;28;4532;-65
2023/09/14 14:22:52;;;;;;;;;;;;;;;;;;5002561;28;5079;-65
2023/09/14 14:25:17;;;;;;;;;;;;;;;;;;5005782;28;1323;-65
2023/09/14 14:27:42;;;;;;;;;;;;;;;;;;5000542;28;5041;-65
2023/09/14 14:30:08;;;;;;;;;;;;;;;;;;5018738;28;5239;-66
2023/09/14 14:32:35;;;;;;;;;;;;;;;;;;5003820;28;4504;-65
2023/09/14 14:35:00;;;;;;;;;;;;;;;;;;5002957;28;5128;-64
2023/09/14 14:37:25;;;;;;;;;;;;;;;;;;5006889;28;1776;-66
2023/09/14 14:39:51;;;;;;;;;;;;;;;;;;4989521;28;4949;-66
2023/09/14 14:42:16;;;;;;;;;;;;;;;;;;5001893;28;4478;-66
2023/09/14 14:44:42;;;;;;;;;;;;;;;;;;4996745;28;4943;-66
2023/09/14 14:47:07;;;;;;;;;;;;;;;;;;4999629;28;4862;-67
2023/09/14 14:49:32;;;;;;;;;;;;;;;;;;4999581;28;2296;-66
2023/09/14 14:51:57;;;;;;;;;;;;;;;;;;5004607;28;4477;-66
2023/09/14 14:54:23;;;;;;;;;;;;;;;;;;4999253;28;5104;-66
2023/09/14 14:56:48;;;;;;;;;;;;;;;;;;5005773;28;5256;-66
2023/09/14 14:59:13;;;;;;;;;;;;;;;;;;5005867;28;4868;-66
2023/09/14 15:01:40;;;;;;;;;;;;;;;;;;5012014;28;1906;-66
2023/09/14 15:04:06;;;;;;;;;;;;;;;;;;5006629;28;4998;-67
2023/09/14 15:06:31;;;;;;;;;;;;;;;;;;5006254;28;4861;-66
2023/09/14 15:08:56;;;;;;;;;;;;;;;;;;5004543;28;5035;-67
2023/09/14 15:11:21;;;;;;;;;;;;;;;;;;5000708;28;5072;-66
2023/09/14 15:13:47;;;;;;;;;;;;;;;;;;5005298;28;1399;-67
2023/09/14 15:16:12;;;;;;;;;;;;;;;;;;5005141;28;4896;-67
2023/09/14 15:18:38;;;;;;;;;;;;;;;;;;5005176;28;4983;-66
2023/09/14 15:21:03;;;;;;;;;;;;;;;;;;5006569;28;5036;-66
2023/09/14 15:23:29;;;;;;;;;;;;;;;;;;5001417;28;4692;-67
2023/09/14 15:25:54;;;;;;;;;;;;;;;;;;5003549;28;5042;-67
2023/09/14 15:28:23;;;;;;;;;;;;;;;;;;5003000;28;1390;-67
2023/09/14 15:30:51;;;;;;;;;;;;;;;;;;4999554;28;5082;-67
2023/09/14 15:33:17;;;;;;;;;;;;;;;;;;5008453;28;5031;-67
2023/09/14 15:35:42;;;;;;;;;;;;;;;;;;5003011;28;5170;-66
2023/09/14 15:38:07;;;;;;;;;;;;;;;;;;5005726;28;4450;-66
2023/09/14 15:40:33;;;;;;;;;;;;;;;;;;5004367;28;2268;-64
2023/09/14 15:42:58;;;;;;;;;;;;;;;;;;5001269;28;4891;-65
2023/09/14 15:45:23;;;;;;;;;;;;;;;;;;5002976;28;5061;-65
2023/09/14 15:47:49;;;;;;;;;;;;;;;;;;5003941;28;5936;-66
2023/09/14 15:50:15;;;;;;;;;;;;;;;;;;5008706;28;4537;-66
2023/09/14 15:52:40;;;;;;;;;;;;;;;;;;5000978;28;1156;-66
2023/09/14 15:55:06;;;;;;;;;;;;;;;;;;5019484;28;4684;-65
2023/09/14 15:57:31;;;;;;;;;;;;;;;;;;5001815;28;4454;-65
2023/09/14 15:59:56;;;;;;;;;;;;;;;;;;5005839;28;5018;-65
2023/09/14 16:02:22;;;;;;;;;;;;;;;;;;5000986;28;5401;-66
2023/09/14 16:04:47;;;;;;;;;;;;;;;;;;5004312;28;1521;-65
2023/09/14 16:07:12;;;;;;;;;;;;;;;;;;5000618;28;4435;-64
2023/09/14 16:09:37;;;;;;;;;;;;;;;;;;5008054;28;4470;-64
2023/09/14 16:12:03;;;;;;;;;;;;;;;;;;5004752;28;5100;-63
2023/09/14 16:14:29;;;;;;;;;;;;;;;;;;5007550;28;5030;-64
2023/09/14 16:16:54;;;;;;;;;;;;;;;;;;4999451;28;5607;-64
2023/09/14 16:19:19;;;;;;;;;;;;;;;;;;4998762;28;1138;-64
2023/09/14 16:21:45;;;;;;;;;;;;;;;;;;5008174;28;5076;-64
2023/09/14 16:24:13;;;;;;;;;;;;;;;;;;5008128;28;4637;-64
2023/09/14 16:26:38;;;;;;;;;;;;;;;;;;5005779;28;5126;-64
2023/09/14 16:29:03;;;;;;;;;;;;;;;;;;5009575;28;4959;-64
2023/09/14 16:31:29;;;;;;;;;;;;;;;;;;5009719;28;1090;-64
2023/09/14 16:33:55;;;;;;;;;;;;;;;;;;5003259;28;4899;-64
2023/09/14 16:36:20;;;;;;;;;;;;;;;;;;5002943;28;5084;-63
2023/09/14 16:38:45;;;;;;;;;;;;;;;;;;4987151;28;4521;-63
2023/09/14 16:41:11;;;;;;;;;;;;;;;;;;5001941;28;5164;-63
2023/09/14 16:43:36;;;;;;;;;;;;;;;;;;5006637;28;2444;-63
2023/09/14 16:46:02;;;;;;;;;;;;;;;;;;5007534;28;5128;-64
2023/09/14 16:48:27;;;;;;;;;;;;;;;;;;5000783;28;4515;-63
2023/09/14 16:50:52;;;;;;;;;;;;;;;;;;5008060;28;5071;-62
2023/09/14 16:53:20;;;;;;;;;;;;;;;;;;5009017;28;5135;-63
2023/09/14 16:55:45;;;;;;;;;;;;;;;;;;5007557;28;1314;-64